Time;durP1;ratioP1;P1;durP2;ratioP2;P2;SDS_P1;SDS_P2;PMS_P1;PMS_P2;Temp;Humidity;BMP_temperature;BMP_pressure;BME280_temperature;BME280_humidity;BME280_pressure;Samples;Min_cycle;Max_cycle;Signal;HPM_P1;HPM_P2
2021/06/20 00:02:01;;;;;;;14.10;12.77;;;28.60;61.60;;;;;;5031101;28;20189;-88
2021/06/20 00:04:26;;;;;;;15.70;12.32;;;28.40;62.30;;;;;;5031543;28;20212;-89
2021/06/20 00:06:52;;;;;;;15.07;13.05;;;28.50;62.60;;;;;;5064605;28;20184;-89
2021/06/20 00:09:19;;;;;;;15.32;13.52;;;28.40;63.50;;;;;;5064507;28;20180;-89
2021/06/20 00:11:47;;;;;;;15.90;12.63;;;28.40;63.80;;;;;;5064181;28;20184;-88
2021/06/20 00:14:13;;;;;;;13.73;12.43;;;28.30;64.60;;;;;;5063966;28;20755;-88
2021/06/20 00:16:40;;;;;;;14.65;13.18;;;28.30;64.90;;;;;;5046925;28;20204;-89
2021/06/20 00:19:07;;;;;;;16.20;12.80;;;28.20;65.40;;;;;;5064915;28;20180;-89
2021/06/20 00:21:33;;;;;;;15.60;13.05;;;28.20;65.90;;;;;;5013610;28;20181;-88
2021/06/20 00:23:59;;;;;;;14.13;12.63;;;28.10;66.20;;;;;;5063807;28;20196;-89
2021/06/20 00:26:25;;;;;;;16.40;12.68;;;28.10;66.30;;;;;;5064248;28;20184;-89
2021/06/20 00:28:51;;;;;;;16.00;13.18;;;28.20;66.40;;;;;;5046758;28;20184;-89
2021/06/20 00:31:17;;;;;;;17.27;12.93;;;28.20;66.70;;;;;;5067950;28;20184;-89
2021/06/20 00:33:43;;;;;;;21.55;12.77;;;28.00;67.20;;;;;;5050200;28;20208;-89
2021/06/20 00:36:10;;;;;;;19.58;12.88;;;27.90;66.50;;;;;;5067716;28;20275;-88
2021/06/20 00:38:36;;;;;;;19.17;12.38;;;27.70;66.00;;;;;;5067369;28;20168;-89
2021/06/20 00:41:03;;;;;;;24.25;12.23;;;27.50;64.20;;;;;;5050223;28;20178;-88
2021/06/20 00:43:29;;;;;;;23.25;11.70;;;27.50;63.10;;;;;;5067855;28;20707;-88
2021/06/20 00:45:55;;;;;;;25.05;12.18;;;27.50;62.80;;;;;;5067651;28;20194;-88
2021/06/20 00:48:21;;;;;;;22.17;11.65;;;27.30;63.80;;;;;;5049723;28;20184;-89
2021/06/20 00:50:46;;;;;;;26.60;13.40;;;27.30;64.70;;;;;;5050380;28;20219;-89
2021/06/20 00:53:13;;;;;;;27.25;13.27;;;27.30;65.20;;;;;;5049651;28;20216;-88
2021/06/20 00:55:39;;;;;;;24.90;12.30;;;27.30;65.70;;;;;;5068290;28;20266;-88
2021/06/20 00:58:06;;;;;;;18.58;12.18;;;27.20;65.80;;;;;;5050430;28;20172;-88
2021/06/20 01:00:34;;;;;;;18.67;11.85;;;27.00;65.80;;;;;;5067420;28;20199;-88
2021/06/20 01:02:59;;;;;;;21.17;11.73;;;26.80;65.90;;;;;;5067762;28;20826;-88
2021/06/20 01:05:26;;;;;;;19.33;11.77;;;26.70;66.50;;;;;;5033109;28;20188;-88
2021/06/20 01:07:53;;;;;;;23.25;10.98;;;26.60;66.70;;;;;;5067361;28;20184;-88
2021/06/20 01:10:21;;;;;;;27.08;12.18;;;26.60;67.00;;;;;;5067447;28;20639;-87
2021/06/20 01:12:48;;;;;;;27.80;12.02;;;26.40;67.00;;;;;;5046836;28;20197;-88
2021/06/20 01:15:16;;;;;;;24.52;10.68;;;26.40;67.50;;;;;;5047596;28;20177;-88
2021/06/20 01:17:43;;;;;;;20.67;11.05;;;26.30;67.70;;;;;;5029663;28;20201;-88
2021/06/20 01:20:12;;;;;;;27.70;11.48;;;26.20;68.10;;;;;;5047504;28;20176;-88
2021/06/20 01:22:41;;;;;;;18.60;10.35;;;26.10;68.50;;;;;;5047706;28;20174;-88
2021/06/20 01:25:16;;;;;;;19.65;10.32;;;25.90;69.20;;;;;;5021005;28;20192;-88
2021/06/20 01:27:44;;;;;;;19.23;10.43;;;26.00;69.10;;;;;;5047202;28;20181;-88
2021/06/20 01:30:23;;;;;;;22.02;9.48;;;25.90;69.20;;;;;;5029602;28;20212;-88
2021/06/20 01:32:50;;;;;;;20.08;10.20;;;25.80;69.30;;;;;;5046946;28;20755;-88
2021/06/20 01:35:16;;;;;;;18.50;8.70;;;25.70;69.80;;;;;;5046142;28;20181;-88
2021/06/20 01:37:43;;;;;;;14.07;9.25;;;25.70;70.00;;;;;;5046194;28;20204;-88
2021/06/20 01:40:10;;;;;;;13.65;9.30;;;25.70;69.70;;;;;;5046786;28;20175;-88
2021/06/20 01:42:40;;;;;;;16.10;9.02;;;25.60;69.70;;;;;;5067240;28;20200;-88
2021/06/20 01:45:08;;;;;;;16.98;8.32;;;25.50;69.70;;;;;;5067049;28;20177;-88
2021/06/20 01:47:34;;;;;;;15.85;9.02;;;25.40;69.70;;;;;;5067571;28;20210;-88
2021/06/20 01:50:03;;;;;;;16.65;8.07;;;25.40;69.10;;;;;;5049112;28;20180;-88
2021/06/20 01:52:29;;;;;;;16.50;7.30;;;25.30;69.50;;;;;;5066776;28;20188;-88
2021/06/20 01:54:55;;;;;;;12.82;7.65;;;25.40;68.70;;;;;;5049045;28;20191;-88
2021/06/20 01:57:29;;;;;;;17.58;7.85;;;25.40;68.90;;;;;;5065424;28;20204;-88
2021/06/20 01:59:57;;;;;;;12.63;7.75;;;25.40;69.00;;;;;;5066808;28;20589;-88
2021/06/20 02:02:25;;;;;;;15.20;7.90;;;25.50;68.80;;;;;;5066628;28;20249;-87
2021/06/20 02:04:52;;;;;;;14.88;8.00;;;25.60;68.40;;;;;;5066807;28;20208;-87
2021/06/20 02:07:18;;;;;;;14.45;8.20;;;25.70;68.40;;;;;;5049915;28;20183;-88
2021/06/20 02:09:44;;;;;;;16.65;7.97;;;25.80;67.80;;;;;;5049141;28;20184;-87
2021/06/20 02:12:12;;;;;;;15.70;7.95;;;25.70;68.10;;;;;;5051778;28;20188;-88
2021/06/20 02:14:39;;;;;;;13.90;8.35;;;25.60;68.30;;;;;;5068894;28;20188;-88
2021/06/20 02:17:23;;;;;;;14.93;7.32;;;25.60;68.60;;;;;;5032616;28;20200;-88
2021/06/20 02:19:51;;;;;;;18.15;7.90;;;25.60;68.30;;;;;;5068244;28;20169;-88
2021/06/20 02:22:17;;;;;;;18.90;7.53;;;25.60;68.50;;;;;;5074551;28;20215;-87
2021/06/20 02:24:43;;;;;;;12.20;7.97;;;25.60;68.40;;;;;;5062020;28;20212;-87
2021/06/20 02:27:12;;;;;;;16.00;8.25;;;25.70;68.10;;;;;;5057966;28;20187;-88
2021/06/20 02:29:38;;;;;;;15.48;8.45;;;25.60;68.30;;;;;;5072565;28;20203;-90
2021/06/20 02:32:05;;;;;;;14.68;8.13;;;25.70;67.80;;;;;;5078407;28;20224;-87
2021/06/20 02:34:31;;;;;;;16.58;8.50;;;25.60;68.40;;;;;;5062196;28;20219;-88
2021/06/20 02:36:57;;;;;;;16.55;8.23;;;25.60;68.60;;;;;;5079198;28;20204;-88
2021/06/20 02:39:22;;;;;;;17.73;7.78;;;25.60;68.10;;;;;;5078503;28;20199;-87
2021/06/20 02:41:50;;;;;;;11.75;7.75;;;25.80;67.90;;;;;;5078283;28;20172;-88
2021/06/20 02:44:17;;;;;;;11.52;7.95;;;25.80;67.60;;;;;;5045012;28;20191;-88
2021/06/20 02:46:43;;;;;;;15.52;7.90;;;25.80;67.90;;;;;;5060547;28;20184;-87
2021/06/20 02:49:09;;;;;;;9.60;7.65;;;25.90;67.50;;;;;;5060394;28;20180;-88
2021/06/20 02:51:35;;;;;;;15.75;7.57;;;25.90;67.70;;;;;;5070666;28;20196;-88
2021/06/20 02:54:01;;;;;;;15.50;7.57;;;25.80;67.40;;;;;;5057146;28;20197;-88
2021/06/20 02:56:26;;;;;;;16.73;7.78;;;25.80;67.70;;;;;;5058328;28;20212;-87
2021/06/20 02:58:52;;;;;;;18.80;7.40;;;25.80;66.50;;;;;;5066940;28;20169;-88
2021/06/20 03:01:18;;;;;;;15.20;7.35;;;25.60;67.50;;;;;;5077756;28;20172;-87
2021/06/20 03:03:44;;;;;;;10.70;6.68;;;25.50;68.00;;;;;;5060212;28;20291;-88
2021/06/20 03:06:10;;;;;;;13.35;8.02;;;25.60;67.70;;;;;;5076001;28;20168;-89
2021/06/20 03:08:36;;;;;;;10.73;6.15;;;25.70;67.10;;;;;;5066091;28;20187;-88
2021/06/20 03:11:02;;;;;;;12.70;6.68;;;25.70;67.00;;;;;;5065453;28;20184;-88
2021/06/20 03:13:28;;;;;;;15.90;6.70;;;25.60;67.70;;;;;;5065216;28;20677;-88
2021/06/20 03:15:55;;;;;;;11.32;6.47;;;25.60;66.70;;;;;;5064805;28;20273;-88
2021/06/20 03:18:21;;;;;;;12.18;6.30;;;25.50;66.20;;;;;;5065585;28;20194;-89
2021/06/20 03:20:47;;;;;;;11.57;6.15;;;25.50;66.20;;;;;;5065155;28;20212;-89
2021/06/20 03:23:13;;;;;;;11.93;6.00;;;25.60;65.40;;;;;;5064992;28;20196;-88
2021/06/20 03:25:40;;;;;;;9.77;5.63;;;25.40;64.30;;;;;;5064846;28;20176;-88
2021/06/20 03:28:06;;;;;;;11.55;6.05;;;25.40;65.10;;;;;;5047038;28;20556;-88
2021/06/20 03:30:31;;;;;;;9.40;5.95;;;25.50;64.70;;;;;;5046802;28;20187;-89
2021/06/20 03:32:57;;;;;;;10.38;5.60;;;25.50;63.90;;;;;;5047274;28;20192;-89
2021/06/20 03:35:23;;;;;;;9.82;5.30;;;25.60;63.20;;;;;;5030443;28;20187;-88
2021/06/20 03:37:49;;;;;;;8.98;5.55;;;25.40;62.60;;;;;;5046826;28;20570;-88
2021/06/20 03:40:15;;;;;;;9.90;4.78;;;25.30;63.20;;;;;;5064230;28;20177;-88
2021/06/20 03:42:41;;;;;;;9.05;4.53;;;25.30;62.60;;;;;;5063800;28;20183;-88
2021/06/20 03:45:08;;;;;;;7.43;4.50;;;25.20;63.10;;;;;;5064534;28;20176;-88
2021/06/20 03:47:35;;;;;;;6.53;4.47;;;25.10;62.90;;;;;;5064318;28;20199;-89
2021/06/20 03:50:02;;;;;;;8.90;4.60;;;25.10;62.40;;;;;;5046764;28;20251;-88
2021/06/20 03:52:28;;;;;;;5.38;4.60;;;25.10;62.70;;;;;;5064501;28;20176;-88
2021/06/20 03:54:54;;;;;;;7.32;4.45;;;25.00;63.10;;;;;;5046961;28;20180;-88
2021/06/20 03:57:21;;;;;;;7.47;4.15;;;25.10;62.40;;;;;;5064810;28;20209;-88
2021/06/20 03:59:47;;;;;;;7.88;4.50;;;25.20;62.50;;;;;;5064591;28;20169;-88
2021/06/20 04:02:13;;;;;;;6.97;3.92;;;25.20;62.20;;;;;;5038300;28;20177;-88
2021/06/20 04:04:40;;;;;;;9.25;4.63;;;25.10;62.70;;;;;;5063410;28;20222;-88
2021/06/20 04:07:07;;;;;;;9.25;4.93;;;25.20;63.20;;;;;;5062637;28;20188;-88
2021/06/20 04:09:33;;;;;;;7.13;4.30;;;25.30;62.80;;;;;;5042139;28;20176;-88
2021/06/20 04:11:59;;;;;;;10.05;4.53;;;25.30;63.60;;;;;;5066546;28;20228;-88
2021/06/20 04:14:25;;;;;;;8.63;4.78;;;25.40;63.20;;;;;;5036606;28;20231;-88
2021/06/20 04:16:50;;;;;;;6.80;4.50;;;25.60;63.20;;;;;;5047692;28;20571;-88
2021/06/20 04:19:16;;;;;;;7.85;5.03;;;25.60;62.80;;;;;;5043828;28;20254;-89
2021/06/20 04:21:42;;;;;;;9.18;5.43;;;25.60;63.60;;;;;;5068533;28;20180;-89
2021/06/20 04:24:08;;;;;;;8.02;5.00;;;25.50;64.00;;;;;;5049742;28;20219;-89
2021/06/20 04:26:34;;;;;;;9.35;5.47;;;25.50;65.00;;;;;;5067416;28;20180;-89
2021/06/20 04:29:00;;;;;;;7.20;4.90;;;25.30;65.80;;;;;;5068448;28;20181;-89
2021/06/20 04:31:26;;;;;;;8.52;5.25;;;25.20;66.30;;;;;;5050710;28;20202;-89
2021/06/20 04:33:52;;;;;;;10.57;5.43;;;25.20;67.20;;;;;;5068906;28;20204;-89
2021/06/20 04:36:18;;;;;;;10.00;5.72;;;25.10;67.30;;;;;;5050575;28;20215;-89
2021/06/20 04:38:44;;;;;;;11.45;5.90;;;25.00;67.90;;;;;;5068097;28;20179;-89
2021/06/20 04:41:14;;;;;;;7.43;5.30;;;25.00;67.80;;;;;;5067424;28;20272;-89
2021/06/20 04:46:27;;;;;;;9.77;5.63;;;25.10;67.30;;;;;;5067471;28;20265;-89
2021/06/20 04:49:01;;;;;;;12.48;5.65;;;25.10;66.20;;;;;;5067458;28;20187;-89
2021/06/20 04:51:32;;;;;;;11.02;5.32;;;25.10;65.60;;;;;;5067812;28;20224;-89
2021/06/20 04:53:58;;;;;;;8.45;5.05;;;25.00;66.10;;;;;;5049163;28;20200;-89
2021/06/20 04:56:24;;;;;;;7.60;5.13;;;24.80;66.20;;;;;;5066318;28;20262;-88
2021/06/20 04:58:50;;;;;;;8.55;5.07;;;24.70;67.20;;;;;;5068518;28;20176;-88
2021/06/20 05:01:16;;;;;;;7.80;4.97;;;24.60;68.10;;;;;;5049925;28;20176;-89
2021/06/20 05:03:42;;;;;;;10.90;5.55;;;24.70;67.40;;;;;;5067880;28;20219;-88
2021/06/20 05:06:08;;;;;;;8.63;4.70;;;24.90;67.60;;;;;;5067762;28;20190;-88
2021/06/20 05:08:34;;;;;;;13.32;5.25;;;24.80;67.60;;;;;;5068397;28;20294;-89
2021/06/20 05:10:59;;;;;;;6.88;5.10;;;24.70;67.80;;;;;;5050778;28;20180;-89
2021/06/20 05:13:25;;;;;;;8.38;4.70;;;24.80;67.60;;;;;;5070210;28;20193;-88
2021/06/20 05:15:51;;;;;;;8.57;4.70;;;24.80;67.00;;;;;;5062775;28;20201;-89
2021/06/20 05:18:17;;;;;;;8.70;4.93;;;24.90;67.40;;;;;;5057299;28;20207;-88
2021/06/20 05:20:43;;;;;;;10.60;5.65;;;24.90;67.10;;;;;;5068089;28;20172;-89
2021/06/20 05:23:09;;;;;;;8.43;4.60;;;24.90;67.30;;;;;;5073007;28;20210;-88
2021/06/20 05:25:35;;;;;;;8.77;4.75;;;25.00;67.10;;;;;;5063252;28;20160;-89
2021/06/20 05:28:01;;;;;;;8.25;4.05;;;25.10;66.10;;;;;;5059493;28;20184;-89
2021/06/20 05:30:27;;;;;;;7.43;4.53;;;25.10;65.80;;;;;;5032939;28;20187;-89
2021/06/20 05:32:55;;;;;;;9.93;4.10;;;25.20;64.90;;;;;;5066741;28;20188;-88
2021/06/20 05:35:21;;;;;;;8.07;4.15;;;25.10;62.70;;;;;;5066719;28;20183;-88
2021/06/20 05:37:47;;;;;;;4.95;3.83;;;25.20;63.00;;;;;;5032627;28;20204;-89
2021/06/20 05:40:14;;;;;;;6.70;3.80;;;25.00;63.20;;;;;;5049395;28;20284;-89
2021/06/20 05:42:40;;;;;;;6.20;3.88;;;24.90;63.30;;;;;;5049357;28;20196;-89
2021/06/20 05:45:07;;;;;;;9.68;4.32;;;24.90;64.20;;;;;;5047578;28;20180;-88
2021/06/20 05:47:32;;;;;;;5.63;4.22;;;24.90;64.00;;;;;;5064781;28;20176;-89
2021/06/20 05:49:59;;;;;;;7.30;4.22;;;24.90;64.40;;;;;;5047696;28;20238;-89
2021/06/20 05:52:24;;;;;;;5.60;3.88;;;24.90;63.60;;;;;;5066293;28;20207;-89
2021/06/20 05:54:50;;;;;;;4.72;3.65;;;25.00;63.60;;;;;;5048414;28;20196;-88
2021/06/20 05:57:20;;;;;;;5.43;3.78;;;24.90;62.40;;;;;;5042562;28;20678;-88
2021/06/20 05:59:47;;;;;;;5.47;3.58;;;25.00;61.70;;;;;;5044092;28;20181;-88
2021/06/20 06:02:13;;;;;;;5.93;4.00;;;25.20;60.40;;;;;;5045625;28;20185;-89
2021/06/20 06:04:40;;;;;;;5.72;3.40;;;25.20;60.70;;;;;;5048572;28;20212;-88
2021/06/20 06:07:06;;;;;;;4.68;3.30;;;25.30;60.60;;;;;;5048262;28;20208;-90
2021/06/20 06:09:32;;;;;;;5.35;3.42;;;25.40;59.60;;;;;;5065367;28;20211;-89
2021/06/20 06:11:57;;;;;;;4.40;3.45;;;25.50;59.80;;;;;;5065476;28;20187;-90
2021/06/20 06:14:24;;;;;;;7.18;3.65;;;25.60;59.80;;;;;;5065046;28;20271;-89
2021/06/20 06:16:50;;;;;;;3.63;3.33;;;25.50;59.80;;;;;;5064258;28;20466;-89
2021/06/20 06:19:17;;;;;;;4.53;3.22;;;25.50;59.60;;;;;;5065089;28;20173;-90
2021/06/20 06:21:44;;;;;;;6.03;3.20;;;25.50;60.20;;;;;;5046533;28;20177;-90
2021/06/20 06:24:10;;;;;;;4.30;3.30;;;25.40;59.40;;;;;;5064844;28;20198;-89
2021/06/20 06:26:36;;;;;;;3.70;3.30;;;25.40;59.60;;;;;;5029435;28;20181;-89
2021/06/20 06:29:02;;;;;;;4.10;3.60;;;25.40;59.00;;;;;;5064944;28;20218;-90
2021/06/20 06:31:28;;;;;;;6.22;3.15;;;25.40;59.60;;;;;;5064279;28;20184;-90
2021/06/20 06:33:54;;;;;;;4.30;3.30;;;25.40;59.50;;;;;;5063469;28;20204;-90
2021/06/20 06:36:19;;;;;;;5.03;3.45;;;25.60;58.90;;;;;;5064630;28;20718;-89
2021/06/20 06:38:45;;;;;;;5.35;3.85;;;25.80;58.90;;;;;;5028139;28;20184;-90
2021/06/20 06:41:12;;;;;;;3.95;3.42;;;25.70;60.00;;;;;;5052399;28;20222;-89
2021/06/20 06:43:38;;;;;;;5.47;3.38;;;25.80;58.30;;;;;;5064057;28;20295;-90
2021/06/20 06:46:04;;;;;;;5.72;3.60;;;25.80;58.20;;;;;;5028802;28;20192;-90
2021/06/20 06:48:29;;;;;;;5.13;3.40;;;25.90;56.50;;;;;;5044967;28;20187;-90
2021/06/20 06:50:55;;;;;;;4.57;3.97;;;25.90;57.00;;;;;;5044777;28;20180;-90
2021/06/20 06:53:21;;;;;;;3.40;3.20;;;26.10;57.90;;;;;;5044624;28;20200;-90
2021/06/20 06:55:47;;;;;;;3.67;3.38;;;26.20;57.50;;;;;;5062173;28;20206;-90
2021/06/20 06:58:14;;;;;;;5.07;3.58;;;26.30;58.70;;;;;;5064687;28;20192;-90
2021/06/20 07:00:39;;;;;;;5.20;3.63;;;26.20;56.90;;;;;;5063952;28;20263;-90
2021/06/20 07:03:05;;;;;;;3.75;3.33;;;26.10;58.60;;;;;;5048169;28;20225;-90
2021/06/20 07:05:31;;;;;;;6.10;3.60;;;26.10;59.40;;;;;;5036349;28;20248;-90
2021/06/20 07:07:57;;;;;;;5.47;3.50;;;26.10;58.40;;;;;;5049017;28;20219;-90
2021/06/20 07:10:22;;;;;;;4.18;3.80;;;26.10;58.30;;;;;;5044272;28;20204;-89
2021/06/20 07:12:48;;;;;;;4.35;3.38;;;25.90;59.20;;;;;;5052351;28;20204;-89
2021/06/20 07:15:15;;;;;;;5.03;3.67;;;26.10;59.40;;;;;;5062808;28;20172;-90
2021/06/20 07:17:41;;;;;;;4.90;3.50;;;26.10;60.10;;;;;;5025958;28;20219;-90
2021/06/20 07:20:11;;;;;;;4.95;3.38;;;26.30;58.90;;;;;;5009482;28;20244;-89
2021/06/20 07:22:37;;;;;;;5.38;3.40;;;26.40;58.30;;;;;;5052259;28;20204;-88
2021/06/20 07:25:04;;;;;;;3.92;3.53;;;26.50;57.30;;;;;;5043520;28;20206;-89
2021/06/20 07:27:30;;;;;;;5.15;4.00;;;26.50;57.90;;;;;;5043438;28;20181;-89
2021/06/20 07:29:55;;;;;;;4.95;3.78;;;26.60;57.70;;;;;;5043376;28;20204;-89
2021/06/20 07:32:21;;;;;;;4.82;3.67;;;26.40;57.80;;;;;;5047918;28;20283;-89
2021/06/20 07:34:51;;;;;;;5.38;3.80;;;26.40;58.80;;;;;;5044622;28;20627;-89
2021/06/20 07:37:16;;;;;;;4.35;3.88;;;26.50;58.10;;;;;;5043740;28;20215;-89
2021/06/20 07:39:42;;;;;;;4.70;3.65;;;26.60;58.20;;;;;;5044432;28;20187;-89
2021/06/20 07:42:08;;;;;;;3.97;3.50;;;26.60;57.50;;;;;;5043820;28;20176;-89
2021/06/20 07:44:33;;;;;;;4.90;4.07;;;26.80;56.60;;;;;;5057809;28;20204;-89
2021/06/20 07:46:59;;;;;;;4.45;3.95;;;26.70;57.50;;;;;;5058038;28;20188;-89
2021/06/20 07:49:25;;;;;;;4.53;3.97;;;26.80;56.90;;;;;;5039975;28;20184;-89
2021/06/20 07:51:50;;;;;;;5.32;4.00;;;26.80;56.60;;;;;;5057820;28;20176;-90
2021/06/20 07:54:16;;;;;;;4.80;3.63;;;27.00;56.60;;;;;;5057576;28;20822;-89
2021/06/20 07:56:42;;;;;;;6.47;3.70;;;27.10;56.20;;;;;;5038817;28;20204;-89
2021/06/20 07:59:07;;;;;;;4.80;4.25;;;27.20;55.60;;;;;;5071688;28;20190;-89
2021/06/20 08:01:33;;;;;;;5.55;4.10;;;27.20;55.50;;;;;;5057502;28;20359;-89
2021/06/20 08:03:59;;;;;;;5.45;3.95;;;27.10;56.00;;;;;;5031959;28;20243;-89
2021/06/20 08:06:25;;;;;;;5.35;4.00;;;27.10;55.60;;;;;;5068010;28;20248;-90
2021/06/20 08:08:57;;;;;;;5.43;4.13;;;27.20;54.50;;;;;;5068137;28;20197;-89
2021/06/20 08:11:24;;;;;;;4.53;4.13;;;27.30;54.80;;;;;;5056989;28;20191;-89
2021/06/20 08:13:50;;;;;;;4.68;4.28;;;27.10;54.70;;;;;;5053104;28;20743;-89
2021/06/20 08:16:18;;;;;;;7.50;3.80;;;27.10;55.50;;;;;;5074994;28;20211;-90
2021/06/20 08:18:43;;;;;;;5.50;4.38;;;26.80;55.80;;;;;;5080441;28;20168;-89
2021/06/20 08:21:09;;;;;;;5.13;4.13;;;26.50;57.10;;;;;;5043291;28;20600;-90
2021/06/20 08:23:35;;;;;;;5.97;4.28;;;26.30;58.40;;;;;;5036079;28;20216;-90
2021/06/20 08:26:01;;;;;;;4.25;3.60;;;26.40;57.50;;;;;;5041593;28;20203;-89
2021/06/20 08:28:27;;;;;;;7.85;4.13;;;26.30;57.90;;;;;;5037338;28;20196;-89
2021/06/20 08:30:52;;;;;;;5.65;4.15;;;26.10;58.20;;;;;;5038670;28;20189;-89
2021/06/20 08:33:18;;;;;;;5.90;3.80;;;26.10;59.60;;;;;;5021976;28;20232;-90
2021/06/20 08:35:44;;;;;;;5.43;4.25;;;26.10;58.80;;;;;;5039745;28;20192;-90
2021/06/20 08:38:09;;;;;;;4.25;3.80;;;26.20;58.00;;;;;;5058360;28;20196;-89
2021/06/20 08:40:35;;;;;;;5.57;4.18;;;26.30;57.90;;;;;;5024520;28;20208;-89
2021/06/20 08:43:01;;;;;;;5.18;4.32;;;26.40;57.60;;;;;;5056709;28;20211;-90
2021/06/20 08:45:26;;;;;;;4.45;3.97;;;26.60;57.20;;;;;;5047674;28;20192;-89
2021/06/20 08:47:53;;;;;;;8.27;4.75;;;26.70;57.60;;;;;;5058328;28;20232;-90
2021/06/20 08:50:19;;;;;;;6.65;4.82;;;26.60;58.70;;;;;;5074114;28;20188;-90
2021/06/20 08:52:45;;;;;;;6.82;4.13;;;26.50;59.20;;;;;;5067567;28;20293;-90
2021/06/20 08:55:12;;;;;;;6.60;3.85;;;26.30;58.90;;;;;;5049511;28;20192;-90
2021/06/20 08:57:41;;;;;;;5.53;4.03;;;26.20;58.80;;;;;;5059280;28;20291;-90
2021/06/20 09:00:10;;;;;;;6.35;3.85;;;26.30;58.50;;;;;;5059452;28;20204;-90
2021/06/20 09:02:36;;;;;;;5.13;3.70;;;26.50;60.80;;;;;;5056944;28;20185;-90
2021/06/20 09:05:06;;;;;;;5.00;4.43;;;26.90;58.10;;;;;;5056616;28;20268;-90
2021/06/20 09:07:37;;;;;;;4.75;4.30;;;27.10;57.40;;;;;;5049522;28;20849;-90
2021/06/20 09:10:18;;;;;;;4.40;4.00;;;27.20;58.30;;;;;;5033920;28;20656;-90
2021/06/20 09:12:54;;;;;;;4.65;4.20;;;27.30;58.90;;;;;;5064287;28;20209;-90
2021/06/20 09:15:22;;;;;;;4.43;3.78;;;27.20;58.50;;;;;;5061616;28;20180;-89
2021/06/20 09:17:53;;;;;;;4.95;3.97;;;27.20;58.00;;;;;;5052966;28;20228;-89
2021/06/20 09:20:28;;;;;;;4.93;4.07;;;27.30;57.50;;;;;;5063183;28;20186;-90
2021/06/20 09:22:58;;;;;;;5.13;4.45;;;27.30;56.80;;;;;;5066687;28;20204;-90
2021/06/20 09:25:29;;;;;;;5.75;4.90;;;27.30;57.20;;;;;;5032725;28;20188;-89
2021/06/20 09:27:57;;;;;;;4.80;4.40;;;27.40;57.70;;;;;;5054086;28;20199;-90
2021/06/20 09:30:29;;;;;;;4.32;3.83;;;27.50;57.50;;;;;;5060980;28;20220;-89
2021/06/20 09:33:04;;;;;;;4.22;3.90;;;27.60;57.70;;;;;;5043186;28;20205;-90
2021/06/20 09:35:48;;;;;;;7.93;4.90;;;27.70;56.80;;;;;;5036499;28;20191;-89
2021/06/20 09:38:32;;;;;;;6.07;4.20;;;27.60;57.10;;;;;;5049796;28;20184;-90
2021/06/20 09:41:07;;;;;;;5.97;4.57;;;27.30;58.10;;;;;;5043559;28;20212;-90
2021/06/20 09:43:34;;;;;;;5.60;4.25;;;27.10;58.60;;;;;;5058089;28;20204;-89
2021/06/20 09:46:02;;;;;;;5.45;3.80;;;27.10;59.90;;;;;;5060332;28;20191;-89
2021/06/20 09:48:35;;;;;;;5.43;4.50;;;27.20;59.10;;;;;;5050367;28;20185;-89
2021/06/20 09:51:18;;;;;;;7.80;4.78;;;27.30;58.80;;;;;;5065330;28;20176;-90
2021/06/20 09:53:47;;;;;;;6.32;4.18;;;27.40;58.80;;;;;;5067383;28;20622;-89
2021/06/20 09:56:13;;;;;;;6.38;3.95;;;27.10;59.10;;;;;;5050587;28;20196;-90
2021/06/20 09:58:42;;;;;;;7.05;4.18;;;26.90;58.80;;;;;;5067490;28;20187;-90
2021/06/20 10:01:10;;;;;;;4.90;4.45;;;26.80;59.80;;;;;;5058635;28;20248;-89
2021/06/20 10:03:36;;;;;;;4.78;4.10;;;27.10;60.60;;;;;;5064217;28;20626;-89
2021/06/20 10:06:03;;;;;;;8.13;4.60;;;27.20;60.40;;;;;;5055575;28;20194;-89
2021/06/20 10:08:31;;;;;;;4.45;4.05;;;27.50;61.00;;;;;;5046099;28;20735;-89
2021/06/20 10:10:57;;;;;;;4.60;4.20;;;27.70;59.40;;;;;;5057804;28;20181;-89
2021/06/20 10:13:22;;;;;;;4.90;4.40;;;27.90;57.50;;;;;;5051990;28;20632;-89
2021/06/20 10:15:48;;;;;;;6.22;4.40;;;28.00;57.50;;;;;;5043858;28;20188;-89
2021/06/20 10:18:14;;;;;;;6.55;4.75;;;27.90;56.30;;;;;;5061285;28;20283;-89
2021/06/20 10:20:41;;;;;;;6.88;6.18;;;28.00;56.50;;;;;;5054458;28;20191;-89
2021/06/20 10:23:19;;;;;;;5.13;4.68;;;27.80;57.60;;;;;;5042947;28;20227;-89
2021/06/20 10:25:45;;;;;;;6.47;4.60;;;27.80;57.40;;;;;;5056274;28;20203;-90
2021/06/20 10:28:16;;;;;;;4.95;4.45;;;27.90;54.60;;;;;;5059352;28;20194;-89
2021/06/20 10:30:46;;;;;;;5.70;4.53;;;28.00;56.20;;;;;;5057288;28;20218;-89
2021/06/20 10:33:13;;;;;;;5.90;4.53;;;27.80;57.10;;;;;;5035958;28;20217;-89
2021/06/20 10:35:44;;;;;;;4.75;4.30;;;27.70;57.90;;;;;;5081113;28;20183;-89
2021/06/20 10:38:34;;;;;;;6.13;4.85;;;27.80;57.70;;;;;;5063593;28;20212;-89
2021/06/20 10:41:00;;;;;;;4.97;4.57;;;28.30;54.50;;;;;;5067080;28;20175;-89
2021/06/20 10:43:25;;;;;;;6.57;4.30;;;28.70;54.20;;;;;;5046177;28;20234;-89
2021/06/20 10:45:51;;;;;;;6.07;4.78;;;28.90;53.70;;;;;;5056530;28;20559;-89
2021/06/20 10:48:20;;;;;;;9.50;4.82;;;28.90;54.20;;;;;;5056786;28;20189;-89
2021/06/20 10:50:51;;;;;;;6.55;4.88;;;28.90;53.60;;;;;;5059182;28;20192;-89
2021/06/20 10:53:18;;;;;;;7.60;5.03;;;28.70;53.30;;;;;;5042762;28;20207;-89
2021/06/20 10:55:50;;;;;;;5.18;4.40;;;28.70;53.30;;;;;;5076487;28;20186;-89
2021/06/20 10:58:20;;;;;;;4.72;4.32;;;28.80;54.10;;;;;;5049651;28;20189;-89
2021/06/20 11:00:46;;;;;;;5.22;4.65;;;28.80;53.10;;;;;;5061953;28;20189;-89
2021/06/20 11:03:18;;;;;;;5.30;4.28;;;29.10;54.30;;;;;;5041319;28;20247;-89
2021/06/20 11:05:48;;;;;;;6.75;4.80;;;29.30;53.10;;;;;;5057109;28;20187;-89
2021/06/20 11:08:32;;;;;;;10.60;4.65;;;29.60;51.90;;;;;;5064752;28;20188;-89
2021/06/20 11:11:07;;;;;;;5.43;4.85;;;29.60;51.70;;;;;;5076536;28;20176;-89
2021/06/20 11:13:33;;;;;;;6.90;4.78;;;29.60;52.50;;;;;;5051593;28;20703;-89
2021/06/20 11:16:04;;;;;;;5.32;4.57;;;29.30;51.20;;;;;;5059768;28;20705;-89
2021/06/20 11:18:30;;;;;;;5.90;4.57;;;28.70;52.30;;;;;;5052970;28;20219;-88
2021/06/20 11:20:55;;;;;;;6.05;5.05;;;28.50;53.50;;;;;;5054344;28;20196;-89
2021/06/20 11:23:21;;;;;;;5.65;5.10;;;28.40;53.50;;;;;;5065662;28;20636;-89
2021/06/20 11:25:53;;;;;;;7.55;4.95;;;28.70;54.40;;;;;;5041048;28;20185;-89
2021/06/20 11:28:19;;;;;;;6.97;4.88;;;28.80;53.30;;;;;;5053514;28;20192;-89
2021/06/20 11:30:45;;;;;;;6.65;5.35;;;28.90;53.10;;;;;;5063974;28;20188;-90
2021/06/20 11:33:22;;;;;;;6.25;5.15;;;29.20;52.70;;;;;;5049867;28;20203;-89
2021/06/20 11:35:51;;;;;;;9.52;4.93;;;29.60;51.90;;;;;;5043430;28;20586;-89
2021/06/20 11:38:37;;;;;;;7.82;5.50;;;30.00;51.70;;;;;;5049321;28;20192;-89
2021/06/20 11:41:21;;;;;;;6.35;4.88;;;30.00;51.00;;;;;;5059253;28;20183;-90
2021/06/20 11:43:58;;;;;;;7.97;4.68;;;30.20;50.70;;;;;;5054909;28;20196;-90
2021/06/20 11:46:27;;;;;;;5.65;5.15;;;30.50;49.70;;;;;;5057312;28;20270;-90
2021/06/20 11:48:55;;;;;;;5.63;5.00;;;30.90;49.70;;;;;;5067137;28;20191;-91
2021/06/20 11:51:32;;;;;;;6.05;5.32;;;31.20;48.60;;;;;;5065646;28;20397;-90
2021/06/20 11:54:09;;;;;;;6.57;5.05;;;31.60;47.80;;;;;;5045034;28;20215;-90
2021/06/20 11:56:35;;;;;;;6.20;4.88;;;31.80;45.80;;;;;;5051899;28;20275;-90
2021/06/20 11:59:01;;;;;;;8.20;5.60;;;31.80;45.80;;;;;;5044887;28;20192;-90
2021/06/20 12:01:45;;;;;;;6.97;5.32;;;32.00;47.20;;;;;;5050385;28;20180;-90
2021/06/20 12:04:13;;;;;;;6.63;6.03;;;32.00;46.40;;;;;;5051991;28;20232;-89
2021/06/20 12:06:39;;;;;;;5.63;5.13;;;31.90;46.00;;;;;;5037031;28;20227;-90
2021/06/20 12:09:09;;;;;;;6.88;6.00;;;31.60;46.80;;;;;;5062778;28;20188;-90
2021/06/20 12:11:36;;;;;;;6.63;5.80;;;32.00;46.80;;;;;;5050426;28;20200;-90
2021/06/20 12:14:04;;;;;;;7.15;5.95;;;32.40;46.00;;;;;;5037199;28;20200;-90
2021/06/20 12:16:30;;;;;;;7.10;5.15;;;31.80;47.00;;;;;;5043781;28;20219;-90
2021/06/20 12:18:57;;;;;;;6.82;6.07;;;32.10;46.40;;;;;;5025800;28;20677;-91
2021/06/20 12:21:30;;;;;;;6.78;5.72;;;32.40;45.80;;;;;;5040982;28;20203;-90
2021/06/20 12:24:00;;;;;;;7.25;5.80;;;32.50;45.90;;;;;;5040683;28;20208;-90
2021/06/20 12:26:33;;;;;;;9.63;5.70;;;32.50;46.60;;;;;;5052491;28;20189;-91
2021/06/20 12:29:04;;;;;;;6.60;5.85;;;32.70;45.20;;;;;;5049079;28;20201;-90
2021/06/20 12:31:30;;;;;;;9.23;6.25;;;32.40;46.50;;;;;;5045609;28;20226;-91
2021/06/20 12:34:04;;;;;;;7.63;5.85;;;33.00;45.30;;;;;;5036548;28;20208;-90
2021/06/20 12:36:30;;;;;;;10.48;6.93;;;33.50;44.40;;;;;;5056777;28;20748;-90
2021/06/20 12:38:58;;;;;;;9.77;6.30;;;33.30;43.70;;;;;;5065271;28;20270;-90
2021/06/20 12:41:28;;;;;;;9.00;6.03;;;33.40;44.50;;;;;;5044573;28;20188;-91
2021/06/20 12:44:08;;;;;;;8.85;6.50;;;33.80;43.10;;;;;;5052793;28;20196;-90
2021/06/20 12:46:36;;;;;;;10.57;6.72;;;34.20;41.90;;;;;;5042873;28;20196;-90
2021/06/20 12:49:13;;;;;;;10.45;6.78;;;33.80;42.10;;;;;;5054970;28;20189;-90